createdAt,value
2019-05-20T00:04:18.102Z,66.40
2019-05-20T00:06:47.466Z,66.20
2019-05-20T00:09:16.911Z,66.40
2019-05-20T00:11:46.459Z,66.90
2019-05-20T00:14:15.840Z,67.00
2019-05-20T00:16:45.222Z,67.30
2019-05-20T00:19:14.771Z,68.30
2019-05-20T00:21:44.214Z,69.10
2019-05-20T00:24:13.545Z,69.00
2019-05-20T00:26:42.963Z,69.00
2019-05-20T00:29:12.408Z,69.30
2019-05-20T00:31:41.805Z,68.80
2019-05-20T00:36:40.231Z,68.70
2019-05-20T00:39:14.390Z,68.20
2019-05-20T00:41:43.787Z,69.20
2019-05-20T00:44:13.173Z,69.70
2019-05-20T00:46:42.627Z,69.80
2019-05-20T00:49:11.995Z,70.00
2019-05-20T00:54:10.452Z,69.80
2019-05-20T00:56:39.861Z,69.50
2019-05-20T00:59:09.330Z,69.40
2019-05-20T01:01:38.717Z,69.40
2019-05-20T01:04:08.132Z,69.40
2019-05-20T01:06:37.590Z,70.00
2019-05-20T01:10:29.161Z,70.70
2019-05-20T01:12:58.599Z,70.90
2019-05-20T01:15:27.937Z,71.40
2019-05-20T01:17:57.287Z,71.80
2019-05-20T01:22:56.271Z,71.80
2019-05-20T01:25:25.720Z,71.70
2019-05-20T01:27:55.172Z,72.00
2019-05-20T01:30:24.563Z,72.00
2019-05-20T01:35:23.061Z,72.50
2019-05-20T01:40:21.574Z,73.60
2019-05-20T01:42:50.921Z,73.70
2019-05-20T01:45:20.330Z,74.20
2019-05-20T01:47:49.713Z,76.30
2019-05-20T01:55:17.416Z,74.80
2019-05-20T01:57:46.908Z,75.00
2019-05-20T02:05:17.956Z,75.50
2019-05-20T02:13:01.448Z,77.00
2019-05-20T02:18:01.514Z,77.10
2019-05-20T02:20:30.884Z,77.10
2019-05-20T02:23:16.212Z,77.10
2019-05-20T02:25:47.010Z,76.90
2019-05-20T02:28:16.545Z,77.30
2019-05-20T02:30:45.938Z,77.10
2019-05-20T02:33:15.445Z,76.70
2019-05-20T02:35:44.817Z,76.80
2019-05-20T02:38:20.765Z,76.80
2019-05-20T02:40:52.826Z,77.20
2019-05-20T02:45:51.453Z,77.60
2019-05-20T02:50:49.969Z,77.90
2019-05-20T02:53:19.383Z,78.30
2019-05-20T02:55:49.838Z,78.10
2019-05-20T02:58:19.214Z,78.30
2019-05-20T03:00:48.796Z,78.50
2019-05-20T03:03:18.213Z,78.60
2019-05-20T03:05:47.731Z,78.90
2019-05-20T03:08:23.618Z,78.50
2019-05-20T03:10:55.765Z,79.00
2019-05-20T03:13:25.157Z,79.30
2019-05-20T03:15:54.657Z,79.00
2019-05-20T03:18:24.210Z,79.30
2019-05-20T03:20:53.709Z,79.50
2019-05-20T03:23:23.071Z,79.60
2019-05-20T03:25:52.540Z,79.00
2019-05-20T03:28:21.972Z,78.80
2019-05-20T03:30:51.333Z,79.20
2019-05-20T03:38:21.615Z,80.30
2019-05-20T03:40:57.410Z,80.00
2019-05-20T03:43:28.071Z,79.80
2019-05-20T03:45:57.568Z,80.10
2019-05-20T03:48:27.353Z,79.80
2019-05-20T03:50:56.769Z,79.50
2019-05-20T03:53:26.192Z,79.20
2019-05-20T03:55:55.584Z,79.60
2019-05-20T04:03:23.259Z,79.10
2019-05-20T04:10:50.821Z,80.10
2019-05-20T04:15:51.272Z,83.50
2019-05-20T04:18:24.343Z,85.20
2019-05-20T04:20:56.459Z,84.60
2019-05-20T04:25:55.008Z,85.10
2019-05-20T04:30:37.872Z,84.40
2019-05-20T04:33:07.337Z,83.70
2019-05-20T04:35:36.706Z,83.90
2019-05-20T04:38:06.144Z,83.90
2019-05-20T04:40:35.611Z,82.70
2019-05-20T04:43:04.993Z,83.50
2019-05-20T04:45:49.359Z,83.60
2019-05-20T04:48:20.781Z,82.20
2019-05-20T04:50:50.331Z,82.30
2019-05-20T04:53:19.708Z,82.10
2019-05-20T04:55:49.055Z,81.50
2019-05-20T05:00:50.786Z,81.80
2019-05-20T05:03:20.392Z,81.70
2019-05-20T05:05:50.528Z,81.70
2019-05-20T05:10:49.463Z,82.50
2019-05-20T05:13:18.933Z,82.60
2019-05-20T05:15:48.317Z,83.00
2019-05-20T05:18:17.681Z,83.20
2019-05-20T05:23:16.419Z,82.80
2019-05-20T05:25:45.876Z,84.00
2019-05-20T05:28:15.260Z,83.20
2019-05-20T05:30:44.707Z,84.30
2019-05-20T05:33:14.176Z,85.40
2019-05-20T05:35:52.935Z,85.40
2019-05-20T05:38:14.649Z,85.10
2019-05-20T05:40:44.029Z,85.40
2019-05-20T05:43:13.404Z,85.80
2019-05-20T05:45:42.799Z,86.00
2019-05-20T05:50:41.222Z,85.30
2019-05-20T05:58:09.095Z,84.80
2019-05-20T06:00:38.587Z,84.70
2019-05-20T06:03:08.054Z,84.50
2019-05-20T06:05:37.412Z,84.70
2019-05-20T06:08:07.956Z,85.70
2019-05-20T06:10:37.330Z,85.10
2019-05-20T06:13:06.806Z,84.40
2019-05-20T06:15:36.245Z,84.50
2019-05-20T06:18:38.992Z,85.40
2019-05-20T06:21:08.326Z,84.80
2019-05-20T06:23:37.689Z,85.60
2019-05-20T06:26:07.120Z,86.60
2019-05-20T06:28:36.517Z,85.70
2019-05-20T06:31:05.943Z,86.20
2019-05-20T06:33:35.303Z,86.00
2019-05-20T06:36:04.758Z,86.70
2019-05-20T06:38:35.781Z,86.40
2019-05-20T06:41:07.136Z,86.50
2019-05-20T06:48:34.588Z,87.80
2019-05-20T06:51:03.946Z,87.90
2019-05-20T06:53:33.391Z,88.50
2019-05-20T06:56:02.939Z,88.80
2019-05-20T06:58:32.385Z,86.40
2019-05-20T07:01:01.721Z,87.30
2019-05-20T07:06:00.232Z,88.80
2019-05-20T07:08:29.629Z,88.50
2019-05-20T07:18:27.633Z,86.80
2019-05-20T07:20:57.091Z,88.40
2019-05-20T07:23:26.376Z,89.80
2019-05-20T07:25:55.864Z,89.20
2019-05-20T07:28:25.255Z,89.00
2019-05-20T07:30:54.692Z,89.20
2019-05-20T07:33:24.062Z,88.70
2019-05-20T07:35:53.529Z,90.10
2019-05-20T07:38:22.951Z,90.70
2019-05-20T07:40:52.318Z,90.50
2019-05-20T07:45:50.951Z,91.10
2019-05-20T07:48:20.460Z,90.90
2019-05-20T07:50:49.877Z,90.60
2019-05-20T07:53:19.249Z,90.60
2019-05-20T07:58:40.868Z,90.70
2019-05-20T08:01:10.280Z,90.70
2019-05-20T08:03:39.833Z,90.20
2019-05-20T08:08:38.216Z,89.70
2019-05-20T08:11:07.695Z,88.40
2019-05-20T08:13:37.066Z,87.60
2019-05-20T08:16:06.474Z,88.90
2019-05-20T08:18:36.949Z,89.00
2019-05-20T08:21:06.371Z,90.10
2019-05-20T08:23:35.918Z,89.90
2019-05-20T08:26:05.343Z,90.20
2019-05-20T08:28:35.465Z,89.70
2019-05-20T08:36:03.196Z,89.20
2019-05-20T08:41:01.879Z,90.40
2019-05-20T08:43:31.436Z,90.70
2019-05-20T08:48:29.885Z,90.50
2019-05-20T08:50:59.284Z,90.80
2019-05-20T08:53:29.085Z,90.80
2019-05-20T08:58:28.454Z,90.90
2019-05-20T09:00:57.920Z,90.70
2019-05-20T09:03:30.316Z,91.10
2019-05-20T09:10:56.625Z,90.60
2019-05-20T09:13:26.276Z,89.00
2019-05-20T09:15:55.911Z,88.40
2019-05-20T09:18:25.353Z,89.60
2019-05-20T09:20:54.798Z,89.90
2019-05-20T09:23:24.165Z,90.30
2019-05-20T09:25:53.686Z,90.10
2019-05-20T09:28:23.174Z,90.20
2019-05-20T09:30:52.812Z,90.00
2019-05-20T09:34:45.085Z,89.80
2019-05-20T09:37:14.555Z,90.60
2019-05-20T09:39:44.006Z,90.90
2019-05-20T09:44:42.599Z,91.20
2019-05-20T09:47:12.100Z,91.90
2019-05-20T09:52:10.717Z,91.20
2019-05-20T09:54:40.134Z,90.90
2019-05-20T09:57:09.679Z,90.70
2019-05-20T09:59:43.386Z,90.90
2019-05-20T10:02:10.143Z,91.30
2019-05-20T10:04:39.784Z,91.40
2019-05-20T10:07:09.240Z,91.50
2019-05-20T10:17:06.008Z,91.40
2019-05-20T10:19:35.487Z,91.50
2019-05-20T10:22:04.918Z,91.50
2019-05-20T10:24:34.433Z,92.40
2019-05-20T10:27:03.858Z,93.00
2019-05-20T10:29:33.293Z,92.50
2019-05-20T10:32:05.295Z,93.30
2019-05-20T10:34:37.239Z,93.70
2019-05-20T10:37:05.752Z,95.00
2019-05-20T10:42:04.224Z,95.70
2019-05-20T10:44:33.644Z,95.00
2019-05-20T10:47:03.073Z,97.40
2019-05-20T10:49:32.471Z,95.70
2019-05-20T10:52:02.338Z,96.00
2019-05-20T10:54:31.792Z,97.10
2019-05-20T10:57:01.160Z,97.10
2019-05-20T10:59:30.528Z,97.20
2019-05-20T11:01:59.879Z,97.30
2019-05-20T11:04:29.339Z,98.60
2019-05-20T11:06:58.743Z,97.40
2019-05-20T11:09:28.133Z,97.20
2019-05-20T11:11:57.446Z,97.40
2019-05-20T11:14:26.966Z,98.20
2019-05-20T11:16:56.377Z,97.40
2019-05-20T11:21:55.156Z,97.20
2019-05-20T11:24:24.473Z,97.50
2019-05-20T11:26:53.924Z,97.00
2019-05-20T11:31:52.335Z,97.50
2019-05-20T11:41:53.954Z,98.20
2019-05-20T11:44:21.751Z,97.30
2019-05-20T11:46:51.192Z,97.20
2019-05-20T11:49:20.539Z,96.90
2019-05-20T11:51:49.905Z,97.20
2019-05-20T11:56:48.455Z,97.20
2019-05-20T11:59:18.023Z,96.90
2019-05-20T12:02:48.538Z,96.80
2019-05-20T12:07:47.053Z,96.90
2019-05-20T12:10:16.548Z,96.40
2019-05-20T12:12:46.309Z,97.00
2019-05-20T12:17:46.510Z,96.90
2019-05-20T12:20:15.903Z,95.80
2019-05-20T12:22:45.247Z,96.10
2019-05-20T12:26:49.671Z,95.80
2019-05-20T12:29:19.321Z,95.40
2019-05-20T12:31:48.633Z,96.00
2019-05-20T12:34:18.019Z,95.60
2019-05-20T12:36:47.466Z,95.70
2019-05-20T12:41:46.045Z,94.70
2019-05-20T12:44:15.489Z,94.90
2019-05-20T12:46:44.898Z,94.60
2019-05-20T12:51:44.809Z,95.40
2019-05-20T12:56:43.250Z,95.00
2019-05-20T12:59:12.730Z,95.80
2019-05-20T13:01:42.101Z,95.90
2019-05-20T13:04:11.621Z,95.30
2019-05-20T13:06:40.997Z,95.40
2019-05-20T13:09:10.349Z,94.70
2019-05-20T13:11:39.695Z,95.20
2019-05-20T13:14:09.387Z,95.20
2019-05-20T13:16:38.799Z,94.40
2019-05-20T13:19:08.255Z,94.60
2019-05-20T13:26:53.082Z,94.30
2019-05-20T13:29:22.643Z,93.70
2019-05-20T13:31:52.265Z,93.30
2019-05-20T13:34:22.374Z,92.80
2019-05-20T13:36:51.904Z,92.50
2019-05-20T13:39:21.331Z,91.70
2019-05-20T13:41:50.898Z,92.00
2019-05-20T13:44:20.660Z,90.50
2019-05-20T13:46:50.239Z,92.60
2019-05-20T13:49:19.624Z,91.60
2019-05-20T13:54:18.225Z,91.00
2019-05-20T13:56:47.639Z,90.90
2019-05-20T14:06:44.297Z,90.70
2019-05-20T14:09:13.716Z,90.80
2019-05-20T14:11:43.080Z,90.80
2019-05-20T14:14:14.326Z,90.30
2019-05-20T14:16:43.509Z,91.10
2019-05-20T14:19:12.875Z,90.60
2019-05-20T14:21:42.356Z,90.90
2019-05-20T14:29:10.077Z,89.70
2019-05-20T14:31:39.512Z,90.50
2019-05-20T14:34:09.058Z,90.30
2019-05-20T14:36:40.365Z,90.50
2019-05-20T14:39:09.583Z,91.30
2019-05-20T14:41:38.948Z,91.30
2019-05-20T14:44:09.989Z,91.20
2019-05-20T14:46:39.426Z,91.60
2019-05-20T14:49:08.852Z,91.90
2019-05-20T14:54:07.520Z,92.60
2019-05-20T14:56:36.855Z,92.90
2019-05-20T14:59:06.298Z,92.40
2019-05-20T15:01:35.647Z,92.70
2019-05-20T15:04:05.043Z,92.80
2019-05-20T15:06:34.569Z,92.70
2019-05-20T15:09:05.365Z,91.80
2019-05-20T15:11:38.070Z,91.90
2019-05-20T15:14:05.721Z,91.00
2019-05-20T15:16:35.070Z,91.50
2019-05-20T15:21:33.533Z,90.80
2019-05-20T15:24:03.009Z,91.00
2019-05-20T15:26:32.456Z,90.70
2019-05-20T15:29:02.088Z,90.60
2019-05-20T15:31:33.302Z,90.60
2019-05-20T15:34:02.844Z,90.60
2019-05-20T15:36:33.353Z,89.80
2019-05-20T15:39:05.182Z,89.40
2019-05-20T15:44:04.780Z,89.50
2019-05-20T15:46:34.234Z,89.40
2019-05-20T15:49:03.568Z,87.90
2019-05-20T15:51:32.986Z,87.70
2019-05-20T15:54:02.503Z,87.50
2019-05-20T15:59:00.932Z,87.00
2019-05-20T16:01:31.424Z,86.10
2019-05-20T16:09:16.762Z,86.70
2019-05-20T16:11:43.276Z,88.30
2019-05-20T16:14:12.572Z,89.00
2019-05-20T16:19:10.960Z,90.00
2019-05-20T16:21:40.359Z,88.80
2019-05-20T16:24:11.731Z,88.10
2019-05-20T16:26:41.085Z,87.90
2019-05-20T16:29:11.801Z,88.50
2019-05-20T16:31:41.211Z,88.80
2019-05-20T16:34:10.682Z,88.50
2019-05-20T16:36:40.128Z,88.30
2019-05-20T16:39:10.187Z,88.20
2019-05-20T16:44:08.563Z,89.70
2019-05-20T16:46:55.733Z,90.00
2019-05-20T16:49:25.073Z,90.30
2019-05-20T16:51:54.556Z,90.40
2019-05-20T16:54:23.971Z,90.10
2019-05-20T16:56:53.359Z,88.60
2019-05-20T17:00:34.769Z,87.40
2019-05-20T17:03:04.136Z,86.10
2019-05-20T17:05:33.628Z,87.80
2019-05-20T17:08:02.995Z,86.70
2019-05-20T17:10:32.399Z,85.30
2019-05-20T17:15:30.785Z,84.20
2019-05-20T17:18:00.449Z,83.50
2019-05-20T17:20:29.809Z,83.30
2019-05-20T17:22:59.347Z,83.70
2019-05-20T17:25:28.849Z,83.80
2019-05-20T17:27:58.175Z,83.70
2019-05-20T17:30:27.665Z,83.60
2019-05-20T17:32:57.005Z,84.10
2019-05-20T17:35:26.357Z,85.10
2019-05-20T17:37:55.967Z,85.00
2019-05-20T17:40:25.255Z,85.50
2019-05-20T17:45:23.628Z,88.20
2019-05-20T17:47:52.970Z,89.70
2019-05-20T17:50:22.486Z,90.10
2019-05-20T17:52:51.887Z,90.50
2019-05-20T17:55:21.174Z,91.00
2019-05-20T17:58:57.992Z,91.50
2019-05-20T18:01:27.418Z,91.50
2019-05-20T18:03:56.831Z,91.60
2019-05-20T18:08:57.023Z,92.10
2019-05-20T18:11:26.533Z,91.80
2019-05-20T18:13:55.839Z,91.70
2019-05-20T18:18:54.391Z,90.30
2019-05-20T18:21:23.744Z,89.80
2019-05-20T18:23:53.288Z,89.10
2019-05-20T18:26:22.679Z,89.00
2019-05-20T18:28:52.063Z,89.30
2019-05-20T18:31:31.712Z,89.10
2019-05-20T18:33:52.467Z,89.80
2019-05-20T18:36:21.951Z,90.30
2019-05-20T18:38:51.385Z,90.60
2019-05-20T18:41:20.847Z,91.10
2019-05-20T18:43:50.269Z,91.30
2019-05-20T18:46:19.531Z,91.60
2019-05-20T18:48:48.908Z,91.60
2019-05-20T18:51:18.258Z,91.90
2019-05-20T18:53:47.655Z,92.00
2019-05-20T18:58:46.916Z,92.20
2019-05-20T19:01:19.421Z,92.10
2019-05-20T19:08:45.673Z,92.30
2019-05-20T19:13:44.243Z,92.20
2019-05-20T19:18:58.946Z,92.40
2019-05-20T19:21:28.302Z,92.40
2019-05-20T19:23:57.675Z,92.30
2019-05-20T19:26:27.159Z,92.50
2019-05-20T19:28:56.676Z,92.20
2019-05-20T19:31:26.055Z,92.40
2019-05-20T19:33:55.419Z,92.50
2019-05-20T19:41:23.117Z,92.60
2019-05-20T19:43:52.474Z,92.70
2019-05-20T19:46:21.884Z,92.40
2019-05-20T19:51:20.354Z,92.20
2019-05-20T19:53:49.717Z,92.20
2019-05-20T19:56:19.168Z,92.00
2019-05-20T19:58:49.579Z,92.10
2019-05-20T20:03:48.278Z,92.10
2019-05-20T20:06:17.861Z,91.80
2019-05-20T20:11:16.342Z,91.70
2019-05-20T20:16:17.881Z,91.30
2019-05-20T20:18:45.754Z,91.10
2019-05-20T20:21:15.119Z,90.80
2019-05-20T20:23:44.543Z,91.00
2019-05-20T20:26:14.131Z,91.30
2019-05-20T20:28:43.427Z,91.10
2019-05-20T20:33:41.930Z,91.20
2019-05-20T20:36:11.202Z,91.00
2019-05-20T20:38:40.867Z,91.10
2019-05-20T20:41:10.252Z,90.30
2019-05-20T20:43:39.566Z,90.60
2019-05-20T20:46:08.980Z,90.40
2019-05-20T20:51:07.502Z,89.60
2019-05-20T20:56:05.820Z,89.70
2019-05-20T20:58:35.269Z,90.30
2019-05-20T21:01:04.650Z,90.20
2019-05-20T21:03:34.208Z,90.00
2019-05-20T21:06:03.547Z,90.80
2019-05-20T21:08:32.919Z,90.80
2019-05-20T21:13:31.355Z,91.10
2019-05-20T21:16:00.851Z,91.40
2019-05-20T21:23:28.348Z,91.60
2019-05-20T21:25:57.710Z,91.80
2019-05-20T21:28:27.181Z,91.70
2019-05-20T21:35:05.573Z,92.00
2019-05-20T21:40:04.943Z,92.10
2019-05-20T21:42:34.299Z,92.00
2019-05-20T21:45:05.346Z,92.20
2019-05-20T21:50:03.778Z,92.00
2019-05-20T21:52:33.140Z,92.00
2019-05-20T21:55:02.581Z,92.00
2019-05-20T21:57:31.961Z,92.10
2019-05-20T22:00:01.322Z,92.00
2019-05-20T22:02:31.296Z,92.00
2019-05-20T22:05:00.647Z,91.90
2019-05-20T22:07:30.028Z,91.90
2019-05-20T22:09:59.455Z,91.80
2019-05-20T22:12:29.815Z,91.80
2019-05-20T22:19:57.108Z,92.70
2019-05-20T22:27:35.461Z,93.20
2019-05-20T22:32:35.227Z,94.00
2019-05-20T22:40:07.469Z,94.60
2019-05-20T22:45:06.323Z,94.70
2019-05-20T22:50:05.780Z,94.70
2019-05-20T22:57:35.057Z,96.10
2019-05-20T23:00:05.062Z,96.30
2019-05-20T23:05:05.053Z,96.00
2019-05-20T23:07:34.401Z,96.10
2019-05-20T23:10:05.440Z,96.10
2019-05-20T23:17:34.162Z,96.10
2019-05-20T23:25:02.612Z,97.30
2019-05-20T23:30:02.062Z,97.00
2019-05-20T23:32:31.613Z,96.70
2019-05-20T23:35:00.974Z,97.30
2019-05-20T23:39:59.531Z,97.60
2019-05-20T23:42:28.975Z,97.40
2019-05-20T23:47:27.461Z,98.00
2019-05-20T23:51:08.722Z,98.00
2019-05-20T23:53:38.008Z,98.10
2019-05-20T23:56:07.402Z,98.10
2019-05-20T23:58:36.969Z,98.30
